sensor_id;sensor_type;location;lat;lon;timestamp;P1;durP1;ratioP1;P2;durP2;ratioP2
74059;SDS011;62414;53.436;8.828;2023-11-19T00:01:05;8.82;;;2.92;;
74059;SDS011;62414;53.436;8.828;2023-11-19T00:03:31;9.77;;;2.80;;
74059;SDS011;62414;53.436;8.828;2023-11-19T00:05:56;10.67;;;3.53;;
74059;SDS011;62414;53.436;8.828;2023-11-19T00:08:22;9.80;;;3.40;;
74059;SDS011;62414;53.436;8.828;2023-11-19T00:10:47;10.15;;;3.63;;
74059;SDS011;62414;53.436;8.828;2023-11-19T00:13:14;9.63;;;3.00;;
74059;SDS011;62414;53.436;8.828;2023-11-19T00:15:39;10.00;;;3.00;;
74059;SDS011;62414;53.436;8.828;2023-11-19T00:18:05;8.90;;;3.07;;
74059;SDS011;62414;53.436;8.828;2023-11-19T00:20:30;8.63;;;3.43;;
74059;SDS011;62414;53.436;8.828;2023-11-19T00:22:56;10.68;;;3.53;;
74059;SDS011;62414;53.436;8.828;2023-11-19T00:25:21;9.87;;;3.60;;
74059;SDS011;62414;53.436;8.828;2023-11-19T00:27:47;10.77;;;3.70;;
74059;SDS011;62414;53.436;8.828;2023-11-19T00:30:14;12.90;;;3.70;;
74059;SDS011;62414;53.436;8.828;2023-11-19T00:32:39;10.10;;;3.40;;
74059;SDS011;62414;53.436;8.828;2023-11-19T00:35:05;11.68;;;3.70;;
74059;SDS011;62414;53.436;8.828;2023-11-19T00:37:31;11.23;;;3.60;;
74059;SDS011;62414;53.436;8.828;2023-11-19T00:39:56;12.85;;;4.07;;
74059;SDS011;62414;53.436;8.828;2023-11-19T00:42:22;11.77;;;3.93;;
74059;SDS011;62414;53.436;8.828;2023-11-19T00:44:47;9.70;;;3.50;;
74059;SDS011;62414;53.436;8.828;2023-11-19T00:47:14;11.88;;;3.58;;
74059;SDS011;62414;53.436;8.828;2023-11-19T00:49:40;13.63;;;4.13;;
74059;SDS011;62414;53.436;8.828;2023-11-19T00:52:05;10.57;;;4.00;;
74059;SDS011;62414;53.436;8.828;2023-11-19T00:54:31;12.40;;;3.63;;
74059;SDS011;62414;53.436;8.828;2023-11-19T00:56:57;9.73;;;3.08;;
74059;SDS011;62414;53.436;8.828;2023-11-19T00:59:22;8.53;;;3.07;;
74059;SDS011;62414;53.436;8.828;2023-11-19T01:01:48;11.87;;;3.53;;
74059;SDS011;62414;53.436;8.828;2023-11-19T01:04:15;11.73;;;3.90;;
74059;SDS011;62414;53.436;8.828;2023-11-19T01:06:40;12.23;;;4.13;;
74059;SDS011;62414;53.436;8.828;2023-11-19T01:09:05;12.32;;;3.80;;
74059;SDS011;62414;53.436;8.828;2023-11-19T01:11:31;13.87;;;4.20;;
74059;SDS011;62414;53.436;8.828;2023-11-19T01:13:56;14.90;;;4.63;;
74059;SDS011;62414;53.436;8.828;2023-11-19T01:16:22;16.23;;;4.75;;
74059;SDS011;62414;53.436;8.828;2023-11-19T01:18:47;19.67;;;5.13;;
74059;SDS011;62414;53.436;8.828;2023-11-19T01:21:14;14.80;;;5.07;;
74059;SDS011;62414;53.436;8.828;2023-11-19T01:23:40;19.23;;;5.40;;
74059;SDS011;62414;53.436;8.828;2023-11-19T01:26:05;18.07;;;5.40;;
74059;SDS011;62414;53.436;8.828;2023-11-19T01:28:31;17.00;;;5.22;;
74059;SDS011;62414;53.436;8.828;2023-11-19T01:30:56;17.13;;;6.10;;
74059;SDS011;62414;53.436;8.828;2023-11-19T01:33:22;20.17;;;6.05;;
74059;SDS011;62414;53.436;8.828;2023-11-19T01:35:47;21.13;;;6.30;;
74059;SDS011;62414;53.436;8.828;2023-11-19T01:38:14;22.10;;;6.67;;
74059;SDS011;62414;53.436;8.828;2023-11-19T01:40:39;20.63;;;5.95;;
74059;SDS011;62414;53.436;8.828;2023-11-19T01:43:05;20.30;;;6.60;;
74059;SDS011;62414;53.436;8.828;2023-11-19T01:45:30;24.42;;;7.07;;
74059;SDS011;62414;53.436;8.828;2023-11-19T01:47:56;23.23;;;7.00;;
74059;SDS011;62414;53.436;8.828;2023-11-19T01:50:22;24.83;;;6.75;;
74059;SDS011;62414;53.436;8.828;2023-11-19T01:52:47;26.67;;;7.70;;
74059;SDS011;62414;53.436;8.828;2023-11-19T01:55:15;28.52;;;7.60;;
74059;SDS011;62414;53.436;8.828;2023-11-19T01:57:40;28.95;;;7.55;;
74059;SDS011;62414;53.436;8.828;2023-11-19T02:00:06;27.10;;;7.27;;
74059;SDS011;62414;53.436;8.828;2023-11-19T02:02:38;31.38;;;8.60;;
74059;SDS011;62414;53.436;8.828;2023-11-19T02:05:04;30.30;;;7.07;;
74059;SDS011;62414;53.436;8.828;2023-11-19T02:07:30;27.73;;;8.57;;
74059;SDS011;62414;53.436;8.828;2023-11-19T02:09:55;29.80;;;8.53;;
74059;SDS011;62414;53.436;8.828;2023-11-19T02:12:22;32.57;;;8.90;;
74059;SDS011;62414;53.436;8.828;2023-11-19T02:14:47;31.15;;;8.15;;
74059;SDS011;62414;53.436;8.828;2023-11-19T02:17:25;28.43;;;8.33;;
74059;SDS011;62414;53.436;8.828;2023-11-19T02:19:51;29.10;;;7.77;;
74059;SDS011;62414;53.436;8.828;2023-11-19T02:22:16;27.35;;;7.28;;
74059;SDS011;62414;53.436;8.828;2023-11-19T02:24:42;31.10;;;8.17;;
74059;SDS011;62414;53.436;8.828;2023-11-19T02:27:10;31.05;;;7.95;;
74059;SDS011;62414;53.436;8.828;2023-11-19T02:29:40;26.88;;;7.20;;
74059;SDS011;62414;53.436;8.828;2023-11-19T02:32:05;28.43;;;7.53;;
74059;SDS011;62414;53.436;8.828;2023-11-19T02:34:31;31.30;;;9.00;;
74059;SDS011;62414;53.436;8.828;2023-11-19T02:36:56;34.10;;;8.13;;
74059;SDS011;62414;53.436;8.828;2023-11-19T02:39:22;29.10;;;7.77;;
74059;SDS011;62414;53.436;8.828;2023-11-19T02:41:47;33.60;;;8.32;;
74059;SDS011;62414;53.436;8.828;2023-11-19T02:44:13;31.63;;;8.73;;
74059;SDS011;62414;53.436;8.828;2023-11-19T02:46:40;31.00;;;8.40;;
74059;SDS011;62414;53.436;8.828;2023-11-19T02:49:05;28.70;;;8.32;;
74059;SDS011;62414;53.436;8.828;2023-11-19T02:51:30;30.70;;;8.07;;
74059;SDS011;62414;53.436;8.828;2023-11-19T02:53:56;34.20;;;9.13;;
74059;SDS011;62414;53.436;8.828;2023-11-19T02:56:21;30.13;;;8.27;;
74059;SDS011;62414;53.436;8.828;2023-11-19T02:58:47;27.70;;;7.00;;
74059;SDS011;62414;53.436;8.828;2023-11-19T03:01:12;25.00;;;7.37;;
74059;SDS011;62414;53.436;8.828;2023-11-19T03:03:39;33.55;;;9.30;;
74059;SDS011;62414;53.436;8.828;2023-11-19T03:06:05;31.10;;;8.75;;
74059;SDS011;62414;53.436;8.828;2023-11-19T03:08:30;34.87;;;8.90;;
74059;SDS011;62414;53.436;8.828;2023-11-19T03:10:56;34.13;;;8.55;;
74059;SDS011;62414;53.436;8.828;2023-11-19T03:13:21;36.47;;;9.17;;
74059;SDS011;62414;53.436;8.828;2023-11-19T03:15:47;32.53;;;8.93;;
74059;SDS011;62414;53.436;8.828;2023-11-19T03:18:12;43.95;;;9.57;;
74059;SDS011;62414;53.436;8.828;2023-11-19T03:20:39;39.50;;;9.67;;
74059;SDS011;62414;53.436;8.828;2023-11-19T03:23:04;37.80;;;10.43;;
74059;SDS011;62414;53.436;8.828;2023-11-19T03:25:30;39.43;;;9.60;;
74059;SDS011;62414;53.436;8.828;2023-11-19T03:27:56;40.95;;;9.85;;
74059;SDS011;62414;53.436;8.828;2023-11-19T03:30:21;48.93;;;11.13;;
74059;SDS011;62414;53.436;8.828;2023-11-19T03:32:46;48.77;;;10.57;;
74059;SDS011;62414;53.436;8.828;2023-11-19T03:35:12;49.57;;;11.63;;
74059;SDS011;62414;53.436;8.828;2023-11-19T03:37:39;46.25;;;10.75;;
74059;SDS011;62414;53.436;8.828;2023-11-19T03:40:05;50.28;;;11.88;;
74059;SDS011;62414;53.436;8.828;2023-11-19T03:42:31;46.90;;;9.93;;
74059;SDS011;62414;53.436;8.828;2023-11-19T03:44:56;40.67;;;9.85;;
74059;SDS011;62414;53.436;8.828;2023-11-19T03:47:22;47.70;;;11.13;;
74059;SDS011;62414;53.436;8.828;2023-11-19T03:49:48;49.22;;;10.70;;
74059;SDS011;62414;53.436;8.828;2023-11-19T03:52:13;37.43;;;9.70;;
74059;SDS011;62414;53.436;8.828;2023-11-19T03:54:40;46.28;;;10.57;;
74059;SDS011;62414;53.436;8.828;2023-11-19T03:57:05;46.23;;;9.93;;
74059;SDS011;62414;53.436;8.828;2023-11-19T03:59:31;53.65;;;10.77;;
74059;SDS011;62414;53.436;8.828;2023-11-19T04:01:57;41.60;;;9.97;;
74059;SDS011;62414;53.436;8.828;2023-11-19T04:04:22;43.63;;;10.55;;
74059;SDS011;62414;53.436;8.828;2023-11-19T04:06:48;42.97;;;9.20;;
74059;SDS011;62414;53.436;8.828;2023-11-19T04:09:13;41.50;;;9.20;;
74059;SDS011;62414;53.436;8.828;2023-11-19T04:11:40;37.33;;;8.98;;
74059;SDS011;62414;53.436;8.828;2023-11-19T04:14:06;39.03;;;8.70;;
74059;SDS011;62414;53.436;8.828;2023-11-19T04:16:31;42.30;;;9.68;;
74059;SDS011;62414;53.436;8.828;2023-11-19T04:18:57;37.93;;;8.80;;
74059;SDS011;62414;53.436;8.828;2023-11-19T04:21:24;44.35;;;9.10;;
74059;SDS011;62414;53.436;8.828;2023-11-19T04:23:50;39.75;;;8.57;;
74059;SDS011;62414;53.436;8.828;2023-11-19T04:26:15;31.13;;;7.83;;
74059;SDS011;62414;53.436;8.828;2023-11-19T04:28:42;49.33;;;8.83;;
74059;SDS011;62414;53.436;8.828;2023-11-19T04:31:07;31.77;;;7.75;;
74059;SDS011;62414;53.436;8.828;2023-11-19T04:33:33;36.47;;;8.93;;
74059;SDS011;62414;53.436;8.828;2023-11-19T04:35:58;31.35;;;7.22;;
74059;SDS011;62414;53.436;8.828;2023-11-19T04:38:24;29.47;;;7.47;;
74059;SDS011;62414;53.436;8.828;2023-11-19T04:40:49;39.70;;;8.37;;
74059;SDS011;62414;53.436;8.828;2023-11-19T04:43:14;31.87;;;7.77;;
74059;SDS011;62414;53.436;8.828;2023-11-19T04:45:41;30.57;;;7.70;;
74059;SDS011;62414;53.436;8.828;2023-11-19T04:48:07;26.52;;;6.78;;
74059;SDS011;62414;53.436;8.828;2023-11-19T04:50:32;41.37;;;7.60;;
74059;SDS011;62414;53.436;8.828;2023-11-19T04:52:57;29.40;;;7.77;;
74059;SDS011;62414;53.436;8.828;2023-11-19T04:55:23;29.60;;;7.03;;
74059;SDS011;62414;53.436;8.828;2023-11-19T04:57:48;31.15;;;6.85;;
74059;SDS011;62414;53.436;8.828;2023-11-19T05:00:14;27.67;;;6.90;;
74059;SDS011;62414;53.436;8.828;2023-11-19T05:02:41;30.27;;;6.05;;
74059;SDS011;62414;53.436;8.828;2023-11-19T05:05:06;26.87;;;6.80;;
74059;SDS011;62414;53.436;8.828;2023-11-19T05:07:32;32.50;;;7.05;;
74059;SDS011;62414;53.436;8.828;2023-11-19T05:09:57;31.30;;;7.00;;
74059;SDS011;62414;53.436;8.828;2023-11-19T05:12:22;25.70;;;6.10;;
74059;SDS011;62414;53.436;8.828;2023-11-19T05:14:48;25.83;;;5.17;;
74059;SDS011;62414;53.436;8.828;2023-11-19T05:17:14;31.05;;;5.97;;
74059;SDS011;62414;53.436;8.828;2023-11-19T05:19:40;24.20;;;5.63;;
74059;SDS011;62414;53.436;8.828;2023-11-19T05:22:06;29.02;;;5.78;;
74059;SDS011;62414;53.436;8.828;2023-11-19T05:24:31;23.30;;;4.80;;
74059;SDS011;62414;53.436;8.828;2023-11-19T05:26:57;25.40;;;5.05;;
74059;SDS011;62414;53.436;8.828;2023-11-19T05:29:22;38.47;;;6.03;;
74059;SDS011;62414;53.436;8.828;2023-11-19T05:31:48;26.57;;;5.17;;
74059;SDS011;62414;53.436;8.828;2023-11-19T05:34:13;20.47;;;5.00;;
74059;SDS011;62414;53.436;8.828;2023-11-19T05:36:40;32.50;;;5.60;;
74059;SDS011;62414;53.436;8.828;2023-11-19T05:39:05;28.00;;;4.97;;
74059;SDS011;62414;53.436;8.828;2023-11-19T05:41:31;23.98;;;4.95;;
74059;SDS011;62414;53.436;8.828;2023-11-19T05:43:56;20.77;;;4.27;;
74059;SDS011;62414;53.436;8.828;2023-11-19T05:46:22;32.03;;;5.00;;
74059;SDS011;62414;53.436;8.828;2023-11-19T05:48:47;21.83;;;4.65;;
74059;SDS011;62414;53.436;8.828;2023-11-19T05:51:13;24.47;;;4.27;;
74059;SDS011;62414;53.436;8.828;2023-11-19T05:53:39;28.57;;;5.47;;
74059;SDS011;62414;53.436;8.828;2023-11-19T05:56:05;21.02;;;4.47;;
74059;SDS011;62414;53.436;8.828;2023-11-19T05:58:31;21.88;;;3.95;;
74059;SDS011;62414;53.436;8.828;2023-11-19T06:00:56;26.67;;;4.93;;
74059;SDS011;62414;53.436;8.828;2023-11-19T06:03:22;27.50;;;3.77;;
74059;SDS011;62414;53.436;8.828;2023-11-19T06:05:47;28.00;;;4.82;;
74059;SDS011;62414;53.436;8.828;2023-11-19T06:08:13;27.13;;;4.30;;
74059;SDS011;62414;53.436;8.828;2023-11-19T06:10:39;27.90;;;5.30;;
74059;SDS011;62414;53.436;8.828;2023-11-19T06:13:05;28.52;;;4.43;;
74059;SDS011;62414;53.436;8.828;2023-11-19T06:15:30;18.73;;;3.87;;
74059;SDS011;62414;53.436;8.828;2023-11-19T06:17:56;22.40;;;4.32;;
74059;SDS011;62414;53.436;8.828;2023-11-19T06:20:21;21.50;;;4.27;;
74059;SDS011;62414;53.436;8.828;2023-11-19T06:22:47;23.43;;;3.67;;
74059;SDS011;62414;53.436;8.828;2023-11-19T06:25:12;20.35;;;3.22;;
74059;SDS011;62414;53.436;8.828;2023-11-19T06:27:39;27.90;;;3.67;;
74059;SDS011;62414;53.436;8.828;2023-11-19T06:30:05;34.03;;;3.95;;
74059;SDS011;62414;53.436;8.828;2023-11-19T06:32:31;27.53;;;3.63;;
74059;SDS011;62414;53.436;8.828;2023-11-19T06:34:57;26.95;;;3.38;;
74059;SDS011;62414;53.436;8.828;2023-11-19T06:37:22;27.53;;;3.20;;
74059;SDS011;62414;53.436;8.828;2023-11-19T06:39:47;20.70;;;2.90;;
74059;SDS011;62414;53.436;8.828;2023-11-19T06:42:13;21.30;;;2.70;;
74059;SDS011;62414;53.436;8.828;2023-11-19T06:44:39;22.40;;;3.30;;
74059;SDS011;62414;53.436;8.828;2023-11-19T06:47:05;23.08;;;3.58;;
74059;SDS011;62414;53.436;8.828;2023-11-19T06:49:30;30.07;;;3.33;;
74059;SDS011;62414;53.436;8.828;2023-11-19T06:51:56;21.77;;;3.03;;
74059;SDS011;62414;53.436;8.828;2023-11-19T06:54:21;24.40;;;3.13;;
74059;SDS011;62414;53.436;8.828;2023-11-19T06:56:47;28.02;;;3.50;;
74059;SDS011;62414;53.436;8.828;2023-11-19T06:59:13;20.90;;;3.07;;
74059;SDS011;62414;53.436;8.828;2023-11-19T07:01:40;18.35;;;4.28;;
74059;SDS011;62414;53.436;8.828;2023-11-19T07:04:06;29.63;;;3.83;;
74059;SDS011;62414;53.436;8.828;2023-11-19T07:06:31;23.60;;;3.20;;
74059;SDS011;62414;53.436;8.828;2023-11-19T07:08:56;28.97;;;3.40;;
74059;SDS011;62414;53.436;8.828;2023-11-19T07:11:22;26.90;;;3.10;;
74059;SDS011;62414;53.436;8.828;2023-11-19T07:13:47;22.35;;;2.70;;
74059;SDS011;62414;53.436;8.828;2023-11-19T07:16:13;21.97;;;3.23;;
74059;SDS011;62414;53.436;8.828;2023-11-19T07:18:40;28.92;;;4.00;;
74059;SDS011;62414;53.436;8.828;2023-11-19T07:21:06;34.30;;;4.63;;
74059;SDS011;62414;53.436;8.828;2023-11-19T07:23:31;39.35;;;5.35;;
74059;SDS011;62414;53.436;8.828;2023-11-19T07:25:57;25.20;;;3.47;;
74059;SDS011;62414;53.436;8.828;2023-11-19T07:28:22;26.93;;;3.83;;
74059;SDS011;62414;53.436;8.828;2023-11-19T07:30:48;30.52;;;2.88;;
74059;SDS011;62414;53.436;8.828;2023-11-19T07:33:13;32.50;;;4.10;;
74059;SDS011;62414;53.436;8.828;2023-11-19T07:35:40;26.47;;;4.03;;
74059;SDS011;62414;53.436;8.828;2023-11-19T07:38:05;31.45;;;4.22;;
74059;SDS011;62414;53.436;8.828;2023-11-19T07:40:31;28.97;;;4.10;;
74059;SDS011;62414;53.436;8.828;2023-11-19T07:42:56;32.33;;;3.90;;
74059;SDS011;62414;53.436;8.828;2023-11-19T07:45:21;25.67;;;3.70;;
74059;SDS011;62414;53.436;8.828;2023-11-19T07:47:47;25.47;;;3.13;;
74059;SDS011;62414;53.436;8.828;2023-11-19T07:50:12;33.70;;;3.67;;
74059;SDS011;62414;53.436;8.828;2023-11-19T07:52:39;33.45;;;3.95;;
74059;SDS011;62414;53.436;8.828;2023-11-19T07:55:05;28.97;;;3.03;;
74059;SDS011;62414;53.436;8.828;2023-11-19T07:57:31;29.55;;;4.38;;
74059;SDS011;62414;53.436;8.828;2023-11-19T07:59:56;31.33;;;3.93;;
74059;SDS011;62414;53.436;8.828;2023-11-19T08:02:22;30.30;;;2.93;;
74059;SDS011;62414;53.436;8.828;2023-11-19T08:04:47;30.93;;;3.63;;
74059;SDS011;62414;53.436;8.828;2023-11-19T08:07:12;33.57;;;4.10;;
74059;SDS011;62414;53.436;8.828;2023-11-19T08:09:39;34.88;;;3.72;;
74059;SDS011;62414;53.436;8.828;2023-11-19T08:12:05;27.23;;;3.23;;
74059;SDS011;62414;53.436;8.828;2023-11-19T08:14:31;30.65;;;3.53;;
74059;SDS011;62414;53.436;8.828;2023-11-19T08:16:56;31.93;;;3.30;;
74059;SDS011;62414;53.436;8.828;2023-11-19T08:19:22;25.85;;;3.20;;
74059;SDS011;62414;53.436;8.828;2023-11-19T08:21:47;27.60;;;3.70;;
74059;SDS011;62414;53.436;8.828;2023-11-19T08:24:13;28.60;;;3.10;;
74059;SDS011;62414;53.436;8.828;2023-11-19T08:26:39;30.38;;;3.38;;
74059;SDS011;62414;53.436;8.828;2023-11-19T08:29:05;30.03;;;3.60;;
74059;SDS011;62414;53.436;8.828;2023-11-19T08:31:30;28.17;;;3.40;;
74059;SDS011;62414;53.436;8.828;2023-11-19T08:33:56;37.30;;;4.37;;
74059;SDS011;62414;53.436;8.828;2023-11-19T08:36:21;42.00;;;3.77;;
74059;SDS011;62414;53.436;8.828;2023-11-19T08:38:47;27.93;;;3.53;;
74059;SDS011;62414;53.436;8.828;2023-11-19T08:41:12;32.43;;;3.33;;
74059;SDS011;62414;53.436;8.828;2023-11-19T08:43:39;27.80;;;3.03;;
74059;SDS011;62414;53.436;8.828;2023-11-19T08:46:08;28.73;;;3.92;;
74059;SDS011;62414;53.436;8.828;2023-11-19T08:48:34;24.02;;;3.58;;
74059;SDS011;62414;53.436;8.828;2023-11-19T08:51:00;21.63;;;2.53;;
74059;SDS011;62414;53.436;8.828;2023-11-19T08:53:25;22.33;;;2.90;;
74059;SDS011;62414;53.436;8.828;2023-11-19T08:55:50;37.07;;;4.47;;
74059;SDS011;62414;53.436;8.828;2023-11-19T08:58:16;32.22;;;3.67;;
74059;SDS011;62414;53.436;8.828;2023-11-19T09:00:43;26.27;;;2.90;;
74059;SDS011;62414;53.436;8.828;2023-11-19T09:03:08;27.23;;;2.67;;
74059;SDS011;62414;53.436;8.828;2023-11-19T09:05:34;27.43;;;3.77;;
74059;SDS011;62414;53.436;8.828;2023-11-19T09:07:59;28.85;;;3.17;;
74059;SDS011;62414;53.436;8.828;2023-11-19T09:10:25;31.53;;;3.33;;
74059;SDS011;62414;53.436;8.828;2023-11-19T09:12:50;25.63;;;2.97;;
74059;SDS011;62414;53.436;8.828;2023-11-19T09:15:16;28.60;;;3.30;;
74059;SDS011;62414;53.436;8.828;2023-11-19T09:17:42;21.98;;;2.80;;
74059;SDS011;62414;53.436;8.828;2023-11-19T09:20:08;29.27;;;3.13;;
74059;SDS011;62414;53.436;8.828;2023-11-19T09:22:35;31.13;;;4.10;;
74059;SDS011;62414;53.436;8.828;2023-11-19T09:25:00;25.50;;;3.50;;
74059;SDS011;62414;53.436;8.828;2023-11-19T09:27:25;26.23;;;2.93;;
74059;SDS011;62414;53.436;8.828;2023-11-19T09:29:51;29.20;;;2.50;;
74059;SDS011;62414;53.436;8.828;2023-11-19T09:32:16;22.83;;;2.83;;
74059;SDS011;62414;53.436;8.828;2023-11-19T09:34:43;24.08;;;2.65;;
74059;SDS011;62414;53.436;8.828;2023-11-19T09:37:09;32.03;;;3.07;;
74059;SDS011;62414;53.436;8.828;2023-11-19T09:39:34;27.27;;;3.22;;
74059;SDS011;62414;53.436;8.828;2023-11-19T09:41:59;22.43;;;2.30;;
74059;SDS011;62414;53.436;8.828;2023-11-19T09:44:25;25.23;;;3.03;;
74059;SDS011;62414;53.436;8.828;2023-11-19T09:46:51;32.15;;;3.53;;
74059;SDS011;62414;53.436;8.828;2023-11-19T09:49:17;23.33;;;2.33;;
74059;SDS011;62414;53.436;8.828;2023-11-19T09:51:47;22.98;;;2.92;;
74059;SDS011;62414;53.436;8.828;2023-11-19T09:54:13;30.47;;;3.23;;
74059;SDS011;62414;53.436;8.828;2023-11-19T09:56:38;24.55;;;3.63;;
74059;SDS011;62414;53.436;8.828;2023-11-19T09:59:04;24.23;;;2.30;;
74059;SDS011;62414;53.436;8.828;2023-11-19T10:01:30;23.80;;;2.67;;
74059;SDS011;62414;53.436;8.828;2023-11-19T10:03:55;26.23;;;4.07;;
74059;SDS011;62414;53.436;8.828;2023-11-19T10:06:21;22.93;;;2.87;;
74059;SDS011;62414;53.436;8.828;2023-11-19T10:08:48;23.45;;;2.83;;
74059;SDS011;62414;53.436;8.828;2023-11-19T10:11:13;25.48;;;2.70;;
74059;SDS011;62414;53.436;8.828;2023-11-19T10:13:39;23.57;;;2.80;;
74059;SDS011;62414;53.436;8.828;2023-11-19T10:16:06;30.80;;;3.20;;
74059;SDS011;62414;53.436;8.828;2023-11-19T10:18:33;23.45;;;2.95;;
74059;SDS011;62414;53.436;8.828;2023-11-19T10:20:59;25.50;;;2.80;;
74059;SDS011;62414;53.436;8.828;2023-11-19T10:23:24;31.37;;;4.27;;
74059;SDS011;62414;53.436;8.828;2023-11-19T10:25:52;28.43;;;3.33;;
74059;SDS011;62414;53.436;8.828;2023-11-19T10:28:18;27.67;;;3.10;;
74059;SDS011;62414;53.436;8.828;2023-11-19T10:30:43;30.57;;;3.20;;
74059;SDS011;62414;53.436;8.828;2023-11-19T10:33:09;25.35;;;2.97;;
74059;SDS011;62414;53.436;8.828;2023-11-19T10:35:36;27.53;;;3.40;;
74059;SDS011;62414;53.436;8.828;2023-11-19T10:38:03;32.90;;;3.72;;
74059;SDS011;62414;53.436;8.828;2023-11-19T10:40:38;23.80;;;3.30;;
74059;SDS011;62414;53.436;8.828;2023-11-19T10:43:05;24.23;;;3.03;;
74059;SDS011;62414;53.436;8.828;2023-11-19T10:45:31;31.23;;;3.95;;
74059;SDS011;62414;53.436;8.828;2023-11-19T10:47:56;26.43;;;2.87;;
74059;SDS011;62414;53.436;8.828;2023-11-19T10:50:22;25.13;;;2.72;;
74059;SDS011;62414;53.436;8.828;2023-11-19T10:52:47;22.20;;;2.53;;
74059;SDS011;62414;53.436;8.828;2023-11-19T10:55:13;26.15;;;3.95;;
74059;SDS011;62414;53.436;8.828;2023-11-19T10:57:40;20.15;;;2.58;;
74059;SDS011;62414;53.436;8.828;2023-11-19T11:00:10;21.75;;;2.40;;
74059;SDS011;62414;53.436;8.828;2023-11-19T11:02:39;24.80;;;2.60;;
74059;SDS011;62414;53.436;8.828;2023-11-19T11:05:06;23.55;;;2.72;;
74059;SDS011;62414;53.436;8.828;2023-11-19T11:07:32;27.83;;;3.40;;
74059;SDS011;62414;53.436;8.828;2023-11-19T11:09:58;24.80;;;3.57;;
74059;SDS011;62414;53.436;8.828;2023-11-19T11:12:24;25.95;;;4.25;;
74059;SDS011;62414;53.436;8.828;2023-11-19T11:14:50;23.83;;;4.13;;
74059;SDS011;62414;53.436;8.828;2023-11-19T11:17:17;25.10;;;3.17;;
74059;SDS011;62414;53.436;8.828;2023-11-19T11:19:43;23.42;;;3.00;;
74059;SDS011;62414;53.436;8.828;2023-11-19T11:22:09;24.77;;;3.00;;
74059;SDS011;62414;53.436;8.828;2023-11-19T11:24:48;23.73;;;3.25;;
74059;SDS011;62414;53.436;8.828;2023-11-19T11:27:30;27.53;;;4.07;;
74059;SDS011;62414;53.436;8.828;2023-11-19T11:30:06;25.20;;;2.92;;
74059;SDS011;62414;53.436;8.828;2023-11-19T11:32:41;24.58;;;3.08;;
74059;SDS011;62414;53.436;8.828;2023-11-19T11:37:59;23.75;;;2.67;;
74059;SDS011;62414;53.436;8.828;2023-11-19T11:40:26;26.37;;;2.90;;
74059;SDS011;62414;53.436;8.828;2023-11-19T11:42:51;28.85;;;3.92;;
74059;SDS011;62414;53.436;8.828;2023-11-19T11:45:17;24.83;;;2.83;;
74059;SDS011;62414;53.436;8.828;2023-11-19T11:50:48;30.52;;;4.00;;
74059;SDS011;62414;53.436;8.828;2023-11-19T11:53:17;23.57;;;2.93;;
74059;SDS011;62414;53.436;8.828;2023-11-19T11:55:57;29.70;;;3.05;;
74059;SDS011;62414;53.436;8.828;2023-11-19T11:58:25;28.67;;;3.05;;
74059;SDS011;62414;53.436;8.828;2023-11-19T12:00:52;20.77;;;2.40;;
74059;SDS011;62414;53.436;8.828;2023-11-19T12:03:20;25.73;;;2.90;;
74059;SDS011;62414;53.436;8.828;2023-11-19T12:05:46;19.70;;;2.80;;
74059;SDS011;62414;53.436;8.828;2023-11-19T12:08:12;22.15;;;2.58;;
74059;SDS011;62414;53.436;8.828;2023-11-19T12:10:43;24.08;;;3.00;;
74059;SDS011;62414;53.436;8.828;2023-11-19T12:13:10;47.97;;;3.58;;
74059;SDS011;62414;53.436;8.828;2023-11-19T12:15:45;29.90;;;3.30;;
74059;SDS011;62414;53.436;8.828;2023-11-19T12:18:34;28.08;;;3.83;;
74059;SDS011;62414;53.436;8.828;2023-11-19T12:21:00;19.52;;;2.90;;
74059;SDS011;62414;53.436;8.828;2023-11-19T12:23:25;28.60;;;2.93;;
74059;SDS011;62414;53.436;8.828;2023-11-19T12:25:51;29.92;;;2.63;;
74059;SDS011;62414;53.436;8.828;2023-11-19T12:28:17;22.43;;;2.57;;
74059;SDS011;62414;53.436;8.828;2023-11-19T12:30:42;25.63;;;2.63;;
74059;SDS011;62414;53.436;8.828;2023-11-19T12:33:08;26.27;;;2.95;;
74059;SDS011;62414;53.436;8.828;2023-11-19T12:35:35;38.28;;;6.10;;
74059;SDS011;62414;53.436;8.828;2023-11-19T12:38:03;27.87;;;3.97;;
74059;SDS011;62414;53.436;8.828;2023-11-19T12:40:29;22.92;;;2.78;;
74059;SDS011;62414;53.436;8.828;2023-11-19T12:42:55;25.87;;;2.57;;
74059;SDS011;62414;53.436;8.828;2023-11-19T12:45:20;24.98;;;2.60;;
74059;SDS011;62414;53.436;8.828;2023-11-19T12:47:46;31.03;;;3.00;;
74059;SDS011;62414;53.436;8.828;2023-11-19T12:50:12;28.15;;;3.00;;
74059;SDS011;62414;53.436;8.828;2023-11-19T12:52:39;25.03;;;2.83;;
74059;SDS011;62414;53.436;8.828;2023-11-19T12:55:05;24.60;;;3.08;;
74059;SDS011;62414;53.436;8.828;2023-11-19T12:57:37;22.50;;;2.60;;
74059;SDS011;62414;53.436;8.828;2023-11-19T13:00:04;29.13;;;2.70;;
74059;SDS011;62414;53.436;8.828;2023-11-19T13:02:46;19.63;;;3.35;;
74059;SDS011;62414;53.436;8.828;2023-11-19T13:05:25;26.13;;;2.87;;
74059;SDS011;62414;53.436;8.828;2023-11-19T13:07:58;19.95;;;2.72;;
74059;SDS011;62414;53.436;8.828;2023-11-19T13:10:24;23.90;;;2.55;;
74059;SDS011;62414;53.436;8.828;2023-11-19T13:12:59;18.97;;;2.50;;
74059;SDS011;62414;53.436;8.828;2023-11-19T13:15:25;14.00;;;1.80;;
74059;SDS011;62414;53.436;8.828;2023-11-19T13:17:51;19.20;;;2.53;;
74059;SDS011;62414;53.436;8.828;2023-11-19T13:20:16;18.83;;;2.72;;
74059;SDS011;62414;53.436;8.828;2023-11-19T13:22:53;18.90;;;2.80;;
74059;SDS011;62414;53.436;8.828;2023-11-19T13:25:20;19.00;;;2.38;;
74059;SDS011;62414;53.436;8.828;2023-11-19T13:27:46;18.92;;;3.15;;
74059;SDS011;62414;53.436;8.828;2023-11-19T13:30:11;16.37;;;2.00;;
74059;SDS011;62414;53.436;8.828;2023-11-19T13:32:37;17.02;;;2.50;;
74059;SDS011;62414;53.436;8.828;2023-11-19T13:35:03;18.77;;;3.13;;
74059;SDS011;62414;53.436;8.828;2023-11-19T13:37:29;19.73;;;4.13;;
74059;SDS011;62414;53.436;8.828;2023-11-19T13:39:55;21.53;;;2.57;;
74059;SDS011;62414;53.436;8.828;2023-11-19T13:42:21;16.95;;;2.30;;
74059;SDS011;62414;53.436;8.828;2023-11-19T13:44:47;21.03;;;3.30;;
74059;SDS011;62414;53.436;8.828;2023-11-19T13:47:12;27.65;;;3.88;;
74059;SDS011;62414;53.436;8.828;2023-11-19T13:49:38;23.90;;;4.10;;
74059;SDS011;62414;53.436;8.828;2023-11-19T13:52:03;16.77;;;3.93;;
74059;SDS011;62414;53.436;8.828;2023-11-19T13:54:29;25.23;;;3.80;;
74059;SDS011;62414;53.436;8.828;2023-11-19T13:56:54;19.67;;;3.67;;
74059;SDS011;62414;53.436;8.828;2023-11-19T13:59:21;23.17;;;3.87;;
74059;SDS011;62414;53.436;8.828;2023-11-19T14:01:47;24.90;;;3.85;;
74059;SDS011;62414;53.436;8.828;2023-11-19T14:04:12;27.75;;;4.72;;
74059;SDS011;62414;53.436;8.828;2023-11-19T14:06:38;25.13;;;6.10;;
74059;SDS011;62414;53.436;8.828;2023-11-19T14:09:03;17.83;;;3.00;;
74059;SDS011;62414;53.436;8.828;2023-11-19T14:11:29;21.77;;;3.03;;
74059;SDS011;62414;53.436;8.828;2023-11-19T14:13:54;34.53;;;8.03;;
74059;SDS011;62414;53.436;8.828;2023-11-19T14:16:21;53.97;;;13.10;;
74059;SDS011;62414;53.436;8.828;2023-11-19T14:18:46;35.67;;;6.28;;
74059;SDS011;62414;53.436;8.828;2023-11-19T14:21:12;19.30;;;5.20;;
74059;SDS011;62414;53.436;8.828;2023-11-19T14:23:37;26.15;;;3.40;;
74059;SDS011;62414;53.436;8.828;2023-11-19T14:26:03;27.50;;;4.83;;
74059;SDS011;62414;53.436;8.828;2023-11-19T14:28:29;20.83;;;3.08;;
74059;SDS011;62414;53.436;8.828;2023-11-19T14:30:54;30.63;;;3.63;;
74059;SDS011;62414;53.436;8.828;2023-11-19T14:33:21;24.43;;;3.70;;